CheckWX is a tool to help pilots better visualize weather data.  It is not intended as a substitute for an official pre-flight weather briefing.

00:36:42 UTC

DAFH METAR
Hassi R'Mel Airport
Algeria
Current

7 hours ago

DAFH 261800Z 21010KT 9999 FEW026 BKN030 20/04 Q1013
Observed
Mar-26 @ 18:00 UTC
Wind
  • 210° at 10 KTS
Visibility
10,000+ meters
Flight Rules
MVFR
Cloud Levels
  • Few at 2,600' AGL
  • Broken at 3,000' AGL
Temperature
20°C / 68°F
Dewpoint
C / 39°F
Humidity
35%
Altimeter
29.91" Hg
Pressure
1012.92 hPa
Previous

8 hours ago

DAFH 261700Z 18016KT 9999 FEW026 BKN030 22/06 Q1013
Observed
Mar-26 @ 17:00 UTC
Wind
  • 180° at 16 KTS
Visibility
10,000+ meters
Flight Rules
MVFR
Cloud Levels
  • Few at 2,600' AGL
  • Broken at 3,000' AGL
Temperature
22°C / 72°F
Dewpoint
C / 43°F
Humidity
36%
Altimeter
29.91" Hg
Pressure
1012.92 hPa
Previous

9 hours ago

DAFH 261600Z 24014KT 9999 FEW026 BKN030 23/05 Q1014
Observed
Mar-26 @ 16:00 UTC
Wind
  • 240° at 14 KTS
Visibility
10,000+ meters
Flight Rules
MVFR
Cloud Levels
  • Few at 2,600' AGL
  • Broken at 3,000' AGL
Temperature
23°C / 73°F
Dewpoint
C / 41°F
Humidity
31%
Altimeter
29.94" Hg
Pressure
1013.92 hPa